sensor_id;sensor_type;location;lat;lon;timestamp;pressure;altitude;pressure_sealevel;temperature;humidity
69879;BME280;57161;43.136;24.706;2022-09-13T00:01:16;98881.03;;;17.53;57.25
69879;BME280;57161;43.136;24.706;2022-09-13T00:03:41;98934.28;;;17.87;57.29
69879;BME280;57161;43.136;24.706;2022-09-13T00:06:12;98929.38;;;17.88;57.14
69879;BME280;57161;43.136;24.706;2022-09-13T00:08:39;98930.03;;;17.77;57.39
69879;BME280;57161;43.136;24.706;2022-09-13T00:11:05;98873.97;;;17.32;57.58
69879;BME280;57161;43.136;24.706;2022-09-13T00:13:31;98917.72;;;17.62;57.73
69879;BME280;57161;43.136;24.706;2022-09-13T00:15:56;98909.41;;;17.55;57.86
69879;BME280;57161;43.136;24.706;2022-09-13T00:18:22;98923.38;;;17.53;58.00
69879;BME280;57161;43.136;24.706;2022-09-13T00:20:49;98918.81;;;17.48;58.16
69879;BME280;57161;43.136;24.706;2022-09-13T00:23:14;98894.47;;;17.33;57.97
69879;BME280;57161;43.136;24.706;2022-09-13T00:25:40;98916.59;;;17.36;58.32
69879;BME280;57161;43.136;24.706;2022-09-13T00:28:06;98913.50;;;17.32;58.54
69879;BME280;57161;43.136;24.706;2022-09-13T00:30:32;98864.84;;;16.93;58.90
69879;BME280;57161;43.136;24.706;2022-09-13T00:32:58;98831.75;;;16.74;58.69
69879;BME280;57161;43.136;24.706;2022-09-13T00:35:24;98874.63;;;17.02;58.84
69879;BME280;57161;43.136;24.706;2022-09-13T00:37:49;98873.44;;;17.05;58.71
69879;BME280;57161;43.136;24.706;2022-09-13T00:40:15;98891.25;;;17.17;58.83
69879;BME280;57161;43.136;24.706;2022-09-13T00:42:40;98900.00;;;17.21;58.76
69879;BME280;57161;43.136;24.706;2022-09-13T00:47:39;98901.66;;;17.15;59.17
69879;BME280;57161;43.136;24.706;2022-09-13T00:52:42;98891.41;;;17.00;59.32
69879;BME280;57161;43.136;24.706;2022-09-13T00:55:20;98878.66;;;16.99;59.37
69879;BME280;57161;43.136;24.706;2022-09-13T00:57:50;98893.19;;;17.15;59.05
69879;BME280;57161;43.136;24.706;2022-09-13T01:00:18;98867.09;;;16.95;59.13
69879;BME280;57161;43.136;24.706;2022-09-13T01:02:53;98877.63;;;16.94;59.31
69879;BME280;57161;43.136;24.706;2022-09-13T01:05:26;98895.59;;;16.99;59.56
69879;BME280;57161;43.136;24.706;2022-09-13T01:07:55;98886.09;;;16.94;59.57
69879;BME280;57161;43.136;24.706;2022-09-13T01:10:21;98891.13;;;16.96;59.62
69879;BME280;57161;43.136;24.706;2022-09-13T01:13:27;98899.31;;;16.82;59.89
69879;BME280;57161;43.136;24.706;2022-09-13T01:15:45;98884.94;;;16.78;59.99
69879;BME280;57161;43.136;24.706;2022-09-13T01:18:12;98885.66;;;16.78;59.97
69879;BME280;57161;43.136;24.706;2022-09-13T01:21:16;98893.25;;;16.76;60.22
69879;BME280;57161;43.136;24.706;2022-09-13T01:43:12;98895.44;;;16.97;59.78
69879;BME280;57161;43.136;24.706;2022-09-13T01:45:58;98896.31;;;16.99;60.05
69879;BME280;57161;43.136;24.706;2022-09-13T01:51:32;98893.22;;;16.95;59.94
69879;BME280;57161;43.136;24.706;2022-09-13T01:54:21;98906.88;;;16.99;59.88
69879;BME280;57161;43.136;24.706;2022-09-13T01:57:08;98908.06;;;16.96;60.10
69879;BME280;57161;43.136;24.706;2022-09-13T02:05:38;98905.25;;;16.96;60.36
69879;BME280;57161;43.136;24.706;2022-09-13T02:08:09;98903.91;;;16.97;60.70
69879;BME280;57161;43.136;24.706;2022-09-13T02:10:44;98902.09;;;16.92;60.91
69879;BME280;57161;43.136;24.706;2022-09-13T02:13:16;98879.41;;;16.70;60.88
69879;BME280;57161;43.136;24.706;2022-09-13T02:15:47;98902.13;;;16.82;60.98
69879;BME280;57161;43.136;24.706;2022-09-13T02:18:40;98887.88;;;16.70;61.16
69879;BME280;57161;43.136;24.706;2022-09-13T02:21:13;98904.66;;;16.78;61.32
69879;BME280;57161;43.136;24.706;2022-09-13T02:23:59;98895.59;;;16.70;61.68
69879;BME280;57161;43.136;24.706;2022-09-13T02:26:28;98879.97;;;16.59;61.75
69879;BME280;57161;43.136;24.706;2022-09-13T02:28:57;98868.72;;;16.49;61.99
69879;BME280;57161;43.136;24.706;2022-09-13T02:31:33;98875.56;;;16.46;62.17
69879;BME280;57161;43.136;24.706;2022-09-13T02:34:03;98890.69;;;16.61;62.02
69879;BME280;57161;43.136;24.706;2022-09-13T02:36:35;98872.88;;;16.48;62.19
69879;BME280;57161;43.136;24.706;2022-09-13T02:39:05;98849.13;;;16.32;62.08
69879;BME280;57161;43.136;24.706;2022-09-13T02:44:13;98886.53;;;16.52;62.43
69879;BME280;57161;43.136;24.706;2022-09-13T02:46:52;98884.44;;;16.52;62.39
69879;BME280;57161;43.136;24.706;2022-09-13T02:49:29;98890.81;;;16.53;62.51
69879;BME280;57161;43.136;24.706;2022-09-13T03:00:30;98891.72;;;16.46;62.11
69879;BME280;57161;43.136;24.706;2022-09-13T03:02:57;98887.56;;;16.47;62.13
69879;BME280;57161;43.136;24.706;2022-09-13T03:05:26;98859.53;;;16.30;62.19
69879;BME280;57161;43.136;24.706;2022-09-13T03:07:52;98883.25;;;16.46;62.29
69879;BME280;57161;43.136;24.706;2022-09-13T03:10:18;98873.91;;;16.34;62.22
69879;BME280;57161;43.136;24.706;2022-09-13T03:18:45;98905.81;;;16.36;63.11
69879;BME280;57161;43.136;24.706;2022-09-13T03:29:55;98905.09;;;15.80;65.24
69879;BME280;57161;43.136;24.706;2022-09-13T03:35:36;98907.13;;;15.70;65.51
69879;BME280;57161;43.136;24.706;2022-09-13T03:40:46;98895.00;;;15.50;66.24
69879;BME280;57161;43.136;24.706;2022-09-13T03:43:22;98905.09;;;15.53;66.63
69879;BME280;57161;43.136;24.706;2022-09-13T03:45:56;98899.56;;;15.45;66.45
69879;BME280;57161;43.136;24.706;2022-09-13T03:48:23;98898.78;;;15.35;66.68
69879;BME280;57161;43.136;24.706;2022-09-13T03:50:50;98916.00;;;15.39;66.73
69879;BME280;57161;43.136;24.706;2022-09-13T03:53:22;98901.97;;;15.22;67.05
69879;BME280;57161;43.136;24.706;2022-09-13T03:55:49;98869.00;;;15.05;67.00
69879;BME280;57161;43.136;24.706;2022-09-13T03:58:19;98799.63;;;14.46;67.23
69879;BME280;57161;43.136;24.706;2022-09-13T04:00:45;98888.56;;;15.13;67.35
69879;BME280;57161;43.136;24.706;2022-09-13T04:03:12;98909.25;;;15.25;67.12
69879;BME280;57161;43.136;24.706;2022-09-13T04:05:37;98908.66;;;15.26;67.50
69879;BME280;57161;43.136;24.706;2022-09-13T04:08:04;98912.38;;;15.29;67.27
69879;BME280;57161;43.136;24.706;2022-09-13T04:10:31;98901.66;;;15.18;67.39
69879;BME280;57161;43.136;24.706;2022-09-13T04:12:57;98902.97;;;15.17;67.56
69879;BME280;57161;43.136;24.706;2022-09-13T04:15:27;98897.19;;;15.15;67.42
69879;BME280;57161;43.136;24.706;2022-09-13T04:17:53;98897.50;;;15.19;67.33
69879;BME280;57161;43.136;24.706;2022-09-13T04:20:18;98903.19;;;15.28;67.30
69879;BME280;57161;43.136;24.706;2022-09-13T04:22:50;98908.56;;;15.34;67.28
69879;BME280;57161;43.136;24.706;2022-09-13T04:25:16;98913.69;;;15.28;67.56
69879;BME280;57161;43.136;24.706;2022-09-13T04:27:41;98903.88;;;15.19;67.62
69879;BME280;57161;43.136;24.706;2022-09-13T04:30:07;98906.84;;;15.21;67.67
69879;BME280;57161;43.136;24.706;2022-09-13T04:32:33;98798.88;;;14.46;67.86
69879;BME280;57161;43.136;24.706;2022-09-13T04:34:58;98901.34;;;15.14;67.97
69879;BME280;57161;43.136;24.706;2022-09-13T04:37:24;98921.31;;;15.35;67.67
69879;BME280;57161;43.136;24.706;2022-09-13T04:39:50;98923.09;;;15.40;67.46
69879;BME280;57161;43.136;24.706;2022-09-13T04:42:16;98880.94;;;15.23;67.30
69879;BME280;57161;43.136;24.706;2022-09-13T04:44:41;98920.94;;;15.48;67.00
69879;BME280;57161;43.136;24.706;2022-09-13T04:47:09;98893.47;;;15.39;67.00
69879;BME280;57161;43.136;24.706;2022-09-13T04:49:34;98913.03;;;15.64;66.70
69879;BME280;57161;43.136;24.706;2022-09-13T04:52:00;98930.81;;;15.67;66.81
69879;BME280;57161;43.136;24.706;2022-09-13T04:54:26;98925.69;;;15.55;66.63
69879;BME280;57161;43.136;24.706;2022-09-13T04:56:51;98929.19;;;15.64;67.05
69879;BME280;57161;43.136;24.706;2022-09-13T04:59:18;98892.19;;;15.50;66.89
69879;BME280;57161;43.136;24.706;2022-09-13T05:01:43;98925.72;;;15.92;66.44
69879;BME280;57161;43.136;24.706;2022-09-13T05:04:09;98931.25;;;16.09;66.48
69879;BME280;57161;43.136;24.706;2022-09-13T05:06:35;98868.03;;;15.83;65.96
69879;BME280;57161;43.136;24.706;2022-09-13T05:09:01;98935.34;;;16.45;64.92
69879;BME280;57161;43.136;24.706;2022-09-13T05:11:28;98942.19;;;16.61;64.96
69879;BME280;57161;43.136;24.706;2022-09-13T05:13:56;98928.38;;;16.65;63.57
69879;BME280;57161;43.136;24.706;2022-09-13T05:16:26;98940.13;;;16.91;62.99
69879;BME280;57161;43.136;24.706;2022-09-13T05:18:53;98944.31;;;16.99;62.89
69879;BME280;57161;43.136;24.706;2022-09-13T05:21:18;98938.94;;;17.13;62.16
69879;BME280;57161;43.136;24.706;2022-09-13T05:23:47;98925.28;;;17.09;61.85
69879;BME280;57161;43.136;24.706;2022-09-13T05:26:13;98941.31;;;17.26;61.77
69879;BME280;57161;43.136;24.706;2022-09-13T05:28:39;98938.03;;;17.30;61.51
69879;BME280;57161;43.136;24.706;2022-09-13T05:31:12;98942.00;;;17.36;61.53
69879;BME280;57161;43.136;24.706;2022-09-13T05:33:46;98922.28;;;17.27;61.78
69879;BME280;57161;43.136;24.706;2022-09-13T05:36:13;98947.19;;;17.50;61.23
69879;BME280;57161;43.136;24.706;2022-09-13T05:38:39;98948.03;;;17.62;60.57
69879;BME280;57161;43.136;24.706;2022-09-13T05:46:31;98956.25;;;17.58;60.36
69879;BME280;57161;43.136;24.706;2022-09-13T05:54:10;98940.06;;;17.89;60.14
69879;BME280;57161;43.136;24.706;2022-09-13T05:56:35;98934.41;;;17.89;59.73
69879;BME280;57161;43.136;24.706;2022-09-13T05:59:01;98941.97;;;17.96;59.53
69879;BME280;57161;43.136;24.706;2022-09-13T06:01:27;98942.41;;;18.03;59.84
69879;BME280;57161;43.136;24.706;2022-09-13T06:03:56;98952.41;;;18.25;58.82
69879;BME280;57161;43.136;24.706;2022-09-13T06:06:23;98951.19;;;18.28;58.75
69879;BME280;57161;43.136;24.706;2022-09-13T06:08:55;98951.13;;;18.38;58.10
69879;BME280;57161;43.136;24.706;2022-09-13T06:11:22;98940.41;;;18.36;57.85
69879;BME280;57161;43.136;24.706;2022-09-13T06:13:48;98893.69;;;18.14;58.18
69879;BME280;57161;43.136;24.706;2022-09-13T06:16:14;98948.19;;;18.57;57.77
69879;BME280;57161;43.136;24.706;2022-09-13T06:18:41;98948.50;;;18.51;57.48
69879;BME280;57161;43.136;24.706;2022-09-13T06:21:12;98882.84;;;18.32;57.54
69879;BME280;57161;43.136;24.706;2022-09-13T06:23:43;98953.19;;;18.68;57.21
69879;BME280;57161;43.136;24.706;2022-09-13T06:26:10;98946.47;;;18.73;57.30
69879;BME280;57161;43.136;24.706;2022-09-13T06:28:37;98957.50;;;18.69;57.39
69879;BME280;57161;43.136;24.706;2022-09-13T06:31:08;98959.84;;;18.94;56.35
69879;BME280;57161;43.136;24.706;2022-09-13T06:33:34;98954.31;;;18.96;55.97
69879;BME280;57161;43.136;24.706;2022-09-13T06:36:06;98980.03;;;19.00;56.23
69879;BME280;57161;43.136;24.706;2022-09-13T06:38:32;98982.06;;;19.09;56.22
69879;BME280;57161;43.136;24.706;2022-09-13T06:41:20;98984.34;;;19.34;55.80
69879;BME280;57161;43.136;24.706;2022-09-13T06:43:52;98973.19;;;19.36;55.40
69879;BME280;57161;43.136;24.706;2022-09-13T06:46:18;98978.91;;;19.60;54.76
69879;BME280;57161;43.136;24.706;2022-09-13T06:48:44;98999.53;;;19.72;54.76
69879;BME280;57161;43.136;24.706;2022-09-13T06:51:18;98994.06;;;19.64;54.77
69879;BME280;57161;43.136;24.706;2022-09-13T06:53:45;98990.41;;;19.73;54.37
69879;BME280;57161;43.136;24.706;2022-09-13T06:58:44;98995.50;;;20.10;53.62
69879;BME280;57161;43.136;24.706;2022-09-13T07:01:19;98992.88;;;20.14;53.54
69879;BME280;57161;43.136;24.706;2022-09-13T07:03:45;99005.47;;;19.99;53.42
69879;BME280;57161;43.136;24.706;2022-09-13T07:06:14;99004.97;;;19.91;54.17
69879;BME280;57161;43.136;24.706;2022-09-13T07:08:41;99003.38;;;20.00;53.34
69879;BME280;57161;43.136;24.706;2022-09-13T07:11:07;98994.59;;;19.72;53.92
69879;BME280;57161;43.136;24.706;2022-09-13T07:13:33;99004.50;;;20.06;53.59
69879;BME280;57161;43.136;24.706;2022-09-13T07:16:04;98985.13;;;19.91;53.12
69879;BME280;57161;43.136;24.706;2022-09-13T07:18:30;98959.69;;;19.58;53.37
69879;BME280;57161;43.136;24.706;2022-09-13T07:21:04;99009.50;;;19.85;53.21
69879;BME280;57161;43.136;24.706;2022-09-13T07:23:35;99007.19;;;19.93;52.96
69879;BME280;57161;43.136;24.706;2022-09-13T07:26:02;98977.44;;;19.59;53.49
69879;BME280;57161;43.136;24.706;2022-09-13T07:28:38;99002.00;;;19.77;53.80
69879;BME280;57161;43.136;24.706;2022-09-13T07:31:15;98979.66;;;19.60;53.88
69879;BME280;57161;43.136;24.706;2022-09-13T07:33:41;99001.16;;;20.10;53.63
69879;BME280;57161;43.136;24.706;2022-09-13T07:36:08;98969.97;;;20.10;52.14
69879;BME280;57161;43.136;24.706;2022-09-13T07:38:39;99018.66;;;20.65;51.78
69879;BME280;57161;43.136;24.706;2022-09-13T07:41:06;99013.38;;;20.59;51.67
69879;BME280;57161;43.136;24.706;2022-09-13T07:43:34;99006.56;;;20.64;52.40
69879;BME280;57161;43.136;24.706;2022-09-13T07:46:05;99015.63;;;20.98;51.88
69879;BME280;57161;43.136;24.706;2022-09-13T07:48:32;99009.53;;;21.15;51.47
69879;BME280;57161;43.136;24.706;2022-09-13T07:51:01;98991.28;;;21.07;50.78
69879;BME280;57161;43.136;24.706;2022-09-13T07:53:27;99025.13;;;21.03;51.17
69879;BME280;57161;43.136;24.706;2022-09-13T07:55:53;98979.06;;;20.67;51.27
69879;BME280;57161;43.136;24.706;2022-09-13T07:58:23;99016.88;;;20.95;51.00
69879;BME280;57161;43.136;24.706;2022-09-13T08:00:49;99012.44;;;20.92;51.36
69879;BME280;57161;43.136;24.706;2022-09-13T08:03:14;99021.13;;;21.19;50.31
69879;BME280;57161;43.136;24.706;2022-09-13T08:05:40;98953.34;;;20.77;49.21
69879;BME280;57161;43.136;24.706;2022-09-13T08:08:06;99025.44;;;21.32;49.77
69879;BME280;57161;43.136;24.706;2022-09-13T08:10:33;99025.25;;;21.42;49.27
69879;BME280;57161;43.136;24.706;2022-09-13T08:12:59;99002.09;;;21.22;49.01
69879;BME280;57161;43.136;24.706;2022-09-13T08:15:25;99020.31;;;21.42;49.19
69879;BME280;57161;43.136;24.706;2022-09-13T08:17:50;99013.38;;;21.45;49.20
69879;BME280;57161;43.136;24.706;2022-09-13T08:20:18;98985.88;;;21.36;49.17
69879;BME280;57161;43.136;24.706;2022-09-13T08:22:44;98973.19;;;21.25;49.47
69879;BME280;57161;43.136;24.706;2022-09-13T08:25:09;99026.63;;;21.80;48.62
69879;BME280;57161;43.136;24.706;2022-09-13T08:27:35;99000.16;;;21.64;48.85
69879;BME280;57161;43.136;24.706;2022-09-13T08:30:01;98970.38;;;21.65;48.35
69879;BME280;57161;43.136;24.706;2022-09-13T08:32:26;99018.78;;;21.92;47.80
69879;BME280;57161;43.136;24.706;2022-09-13T08:34:52;99015.25;;;21.66;48.26
69879;BME280;57161;43.136;24.706;2022-09-13T08:37:20;98979.53;;;21.63;47.60
69879;BME280;57161;43.136;24.706;2022-09-13T08:39:46;99005.28;;;21.93;47.75
69879;BME280;57161;43.136;24.706;2022-09-13T08:42:21;99014.13;;;22.24;46.89
69879;BME280;57161;43.136;24.706;2022-09-13T08:44:53;99012.97;;;22.43;46.88
69879;BME280;57161;43.136;24.706;2022-09-13T08:50:14;98995.25;;;22.58;45.56
69879;BME280;57161;43.136;24.706;2022-09-13T08:55:39;98990.38;;;22.61;45.47
69879;BME280;57161;43.136;24.706;2022-09-13T09:07:02;98974.03;;;22.61;45.17
69879;BME280;57161;43.136;24.706;2022-09-13T09:09:33;98949.28;;;22.50;45.55
69879;BME280;57161;43.136;24.706;2022-09-13T09:12:25;98976.94;;;22.48;45.75
69879;BME280;57161;43.136;24.706;2022-09-13T09:17:49;98952.84;;;21.82;47.19
69879;BME280;57161;43.136;24.706;2022-09-13T09:20:45;98953.59;;;21.82;46.76
69879;BME280;57161;43.136;24.706;2022-09-13T09:26:10;98928.69;;;21.69;46.91
69879;BME280;57161;43.136;24.706;2022-09-13T09:28:37;98953.41;;;22.20;46.47
69879;BME280;57161;43.136;24.706;2022-09-13T09:31:19;98940.56;;;22.19;45.77
69879;BME280;57161;43.136;24.706;2022-09-13T09:37:07;98949.34;;;22.80;44.51
69879;BME280;57161;43.136;24.706;2022-09-13T09:39:37;98950.28;;;22.98;43.26
69879;BME280;57161;43.136;24.706;2022-09-13T09:42:08;98932.78;;;22.90;43.21
69879;BME280;57161;43.136;24.706;2022-09-13T09:44:38;98946.06;;;23.28;43.84
69879;BME280;57161;43.136;24.706;2022-09-13T09:47:15;98929.44;;;23.09;42.66
69879;BME280;57161;43.136;24.706;2022-09-13T09:50:02;98935.47;;;23.31;42.88
69879;BME280;57161;43.136;24.706;2022-09-13T09:55:39;98905.16;;;23.08;42.49
69879;BME280;57161;43.136;24.706;2022-09-13T09:58:09;98936.47;;;23.22;41.43
69879;BME280;57161;43.136;24.706;2022-09-13T10:00:58;98915.53;;;23.01;41.24
69879;BME280;57161;43.136;24.706;2022-09-13T10:03:33;98908.56;;;23.04;42.20
69879;BME280;57161;43.136;24.706;2022-09-13T10:06:10;98916.16;;;23.29;42.12
69879;BME280;57161;43.136;24.706;2022-09-13T10:08:39;98916.81;;;22.98;42.12
69879;BME280;57161;43.136;24.706;2022-09-13T10:11:05;98900.19;;;22.79;42.66
69879;BME280;57161;43.136;24.706;2022-09-13T10:13:32;98892.09;;;22.73;42.35
69879;BME280;57161;43.136;24.706;2022-09-13T10:15:59;98902.94;;;22.77;42.47
69879;BME280;57161;43.136;24.706;2022-09-13T10:18:30;98918.72;;;22.51;42.23
69879;BME280;57161;43.136;24.706;2022-09-13T10:23:28;98909.66;;;22.40;42.91
69879;BME280;57161;43.136;24.706;2022-09-13T10:28:23;98899.19;;;23.02;41.96
69879;BME280;57161;43.136;24.706;2022-09-13T10:30:57;98894.09;;;23.30;41.21
69879;BME280;57161;43.136;24.706;2022-09-13T10:33:29;98904.91;;;23.63;41.42
69879;BME280;57161;43.136;24.706;2022-09-13T10:35:59;98877.53;;;23.42;40.05
69879;BME280;57161;43.136;24.706;2022-09-13T10:38:31;98893.16;;;23.25;40.98
69879;BME280;57161;43.136;24.706;2022-09-13T10:41:00;98880.44;;;22.97;41.39
69879;BME280;57161;43.136;24.706;2022-09-13T10:43:28;98881.53;;;23.05;41.47
69879;BME280;57161;43.136;24.706;2022-09-13T10:45:55;98891.16;;;23.28;39.02
69879;BME280;57161;43.136;24.706;2022-09-13T10:48:21;98887.44;;;23.10;38.57
69879;BME280;57161;43.136;24.706;2022-09-13T10:53:34;98895.38;;;23.43;40.04
69879;BME280;57161;43.136;24.706;2022-09-13T10:56:00;98905.19;;;23.69;38.81
69879;BME280;57161;43.136;24.706;2022-09-13T10:58:27;98897.81;;;23.95;38.82
69879;BME280;57161;43.136;24.706;2022-09-13T11:09:45;98880.69;;;23.32;38.72
69879;BME280;57161;43.136;24.706;2022-09-13T11:15:35;98849.38;;;23.03;39.00
69879;BME280;57161;43.136;24.706;2022-09-13T11:26:39;98874.91;;;24.27;38.17
69879;BME280;57161;43.136;24.706;2022-09-13T11:29:34;98874.94;;;24.78;37.28
69879;BME280;57161;43.136;24.706;2022-09-13T11:45:56;98845.53;;;23.91;38.42
69879;BME280;57161;43.136;24.706;2022-09-13T11:56:42;98849.88;;;24.77;35.58
69879;BME280;57161;43.136;24.706;2022-09-13T12:05:12;98846.69;;;25.04;35.87
69879;BME280;57161;43.136;24.706;2022-09-13T12:07:44;98853.88;;;25.05;36.31
69879;BME280;57161;43.136;24.706;2022-09-13T12:10:28;98833.53;;;24.44;36.44
69879;BME280;57161;43.136;24.706;2022-09-13T12:12:55;98843.16;;;24.52;37.32
69879;BME280;57161;43.136;24.706;2022-09-13T12:18:24;98854.38;;;23.97;37.08
69879;BME280;57161;43.136;24.706;2022-09-13T12:20:54;98843.00;;;23.81;37.02
69879;BME280;57161;43.136;24.706;2022-09-13T12:23:31;98841.34;;;23.76;36.56
69879;BME280;57161;43.136;24.706;2022-09-13T12:26:06;98830.03;;;24.12;36.63
69879;BME280;57161;43.136;24.706;2022-09-13T12:28:39;98830.84;;;24.48;35.35
69879;BME280;57161;43.136;24.706;2022-09-13T12:31:11;98854.34;;;24.64;35.78
69879;BME280;57161;43.136;24.706;2022-09-13T12:33:41;98839.72;;;24.05;35.83
69879;BME280;57161;43.136;24.706;2022-09-13T12:36:22;98849.91;;;23.76;36.84
69879;BME280;57161;43.136;24.706;2022-09-13T12:41:28;98846.56;;;23.82;36.65
69879;BME280;57161;43.136;24.706;2022-09-13T12:50:00;98835.25;;;24.69;33.96
69879;BME280;57161;43.136;24.706;2022-09-13T12:52:44;98840.41;;;25.08;33.72
69879;BME280;57161;43.136;24.706;2022-09-13T12:58:21;98832.56;;;24.73;32.75
69879;BME280;57161;43.136;24.706;2022-09-13T13:04:21;98814.69;;;24.72;33.77
69879;BME280;57161;43.136;24.706;2022-09-13T13:06:52;98835.50;;;24.93;34.22
69879;BME280;57161;43.136;24.706;2022-09-13T13:11:45;98843.75;;;24.84;33.73
69879;BME280;57161;43.136;24.706;2022-09-13T13:36:41;98859.97;;;25.53;32.19
69879;BME280;57161;43.136;24.706;2022-09-13T13:54:56;98853.69;;;25.57;32.60
69879;BME280;57161;43.136;24.706;2022-09-13T14:00:19;98839.00;;;25.47;32.23
69879;BME280;57161;43.136;24.706;2022-09-13T14:08:31;98848.22;;;25.25;32.89
69879;BME280;57161;43.136;24.706;2022-09-13T14:11:50;98865.19;;;25.39;32.24
69879;BME280;57161;43.136;24.706;2022-09-13T14:19:40;98862.50;;;25.25;32.23
69879;BME280;57161;43.136;24.706;2022-09-13T14:24:38;98853.97;;;25.45;32.31
69879;BME280;57161;43.136;24.706;2022-09-13T14:27:04;98852.38;;;25.60;32.38
69879;BME280;57161;43.136;24.706;2022-09-13T14:29:30;98864.19;;;25.70;32.23
69879;BME280;57161;43.136;24.706;2022-09-13T14:32:05;98860.34;;;25.63;32.61
69879;BME280;57161;43.136;24.706;2022-09-13T14:34:36;98826.16;;;25.28;32.74
69879;BME280;57161;43.136;24.706;2022-09-13T14:37:16;98850.84;;;25.77;32.15
69879;BME280;57161;43.136;24.706;2022-09-13T14:39:57;98862.03;;;25.51;32.61
69879;BME280;57161;43.136;24.706;2022-09-13T14:42:22;98862.56;;;25.65;31.66
69879;BME280;57161;43.136;24.706;2022-09-13T14:44:48;98838.19;;;25.44;31.89
69879;BME280;57161;43.136;24.706;2022-09-13T14:47:28;98850.41;;;25.27;31.76
69879;BME280;57161;43.136;24.706;2022-09-13T14:49:59;98859.16;;;25.31;31.81
69879;BME280;57161;43.136;24.706;2022-09-13T14:52:34;98857.94;;;25.18;32.46
69879;BME280;57161;43.136;24.706;2022-09-13T14:55:13;98851.19;;;25.09;32.84
69879;BME280;57161;43.136;24.706;2022-09-13T14:57:48;98852.50;;;25.06;33.17
69879;BME280;57161;43.136;24.706;2022-09-13T15:00:20;98849.38;;;25.00;32.66
69879;BME280;57161;43.136;24.706;2022-09-13T15:03:10;98851.25;;;24.94;33.21
69879;BME280;57161;43.136;24.706;2022-09-13T15:05:38;98846.22;;;24.74;33.09
69879;BME280;57161;43.136;24.706;2022-09-13T15:10:59;98849.13;;;24.41;33.11
69879;BME280;57161;43.136;24.706;2022-09-13T15:13:25;98835.59;;;24.41;33.54
69879;BME280;57161;43.136;24.706;2022-09-13T15:15:51;98846.50;;;24.47;34.06
69879;BME280;57161;43.136;24.706;2022-09-13T15:23:21;98827.97;;;23.97;34.80
69879;BME280;57161;43.136;24.706;2022-09-13T15:31:23;98820.69;;;23.93;35.51
69879;BME280;57161;43.136;24.706;2022-09-13T15:37:07;98847.53;;;24.04;35.37
69879;BME280;57161;43.136;24.706;2022-09-13T15:40:12;98823.59;;;23.78;35.80
69879;BME280;57161;43.136;24.706;2022-09-13T15:42:38;98853.81;;;24.01;36.16
69879;BME280;57161;43.136;24.706;2022-09-13T15:45:04;98849.97;;;23.94;36.08
69879;BME280;57161;43.136;24.706;2022-09-13T15:47:30;98840.94;;;23.84;36.31
69879;BME280;57161;43.136;24.706;2022-09-13T15:49:55;98852.91;;;23.96;35.89
69879;BME280;57161;43.136;24.706;2022-09-13T15:52:21;98860.06;;;23.97;36.04
69879;BME280;57161;43.136;24.706;2022-09-13T15:54:49;98850.06;;;23.80;36.69
69879;BME280;57161;43.136;24.706;2022-09-13T15:57:27;98849.78;;;23.74;36.85
69879;BME280;57161;43.136;24.706;2022-09-13T15:59:53;98868.75;;;23.83;36.74
69879;BME280;57161;43.136;24.706;2022-09-13T16:02:26;98846.59;;;23.66;36.99
69879;BME280;57161;43.136;24.706;2022-09-13T16:04:53;98867.00;;;23.76;37.04
69879;BME280;57161;43.136;24.706;2022-09-13T16:07:19;98864.69;;;23.73;37.22
69879;BME280;57161;43.136;24.706;2022-09-13T16:09:45;98860.69;;;23.62;37.33
69879;BME280;57161;43.136;24.706;2022-09-13T16:12:10;98868.59;;;23.63;37.62
69879;BME280;57161;43.136;24.706;2022-09-13T16:14:36;98878.97;;;23.57;37.61
69879;BME280;57161;43.136;24.706;2022-09-13T16:17:05;98845.09;;;23.33;38.40
69879;BME280;57161;43.136;24.706;2022-09-13T16:19:31;98869.72;;;23.43;39.42
69879;BME280;57161;43.136;24.706;2022-09-13T16:21:57;98851.78;;;23.24;39.78
69879;BME280;57161;43.136;24.706;2022-09-13T16:24:23;98861.19;;;23.27;39.59
69879;BME280;57161;43.136;24.706;2022-09-13T16:26:48;98870.00;;;23.17;40.27
69879;BME280;57161;43.136;24.706;2022-09-13T16:29:14;98870.06;;;23.03;40.11
69879;BME280;57161;43.136;24.706;2022-09-13T16:31:39;98868.41;;;22.98;40.04
69879;BME280;57161;43.136;24.706;2022-09-13T16:34:05;98869.19;;;22.85;39.46
69879;BME280;57161;43.136;24.706;2022-09-13T16:36:31;98858.34;;;22.68;39.38
69879;BME280;57161;43.136;24.706;2022-09-13T16:38:58;98877.38;;;22.63;39.85
69879;BME280;57161;43.136;24.706;2022-09-13T16:41:25;98869.78;;;22.54;40.34
69879;BME280;57161;43.136;24.706;2022-09-13T16:43:50;98863.28;;;22.38;40.02
69879;BME280;57161;43.136;24.706;2022-09-13T16:46:16;98867.50;;;22.37;40.42
69879;BME280;57161;43.136;24.706;2022-09-13T16:48:42;98870.16;;;22.33;40.20
69879;BME280;57161;43.136;24.706;2022-09-13T16:51:09;98854.69;;;22.08;40.40
69879;BME280;57161;43.136;24.706;2022-09-13T16:53:39;98880.91;;;22.21;40.40
69879;BME280;57161;43.136;24.706;2022-09-13T16:56:13;98888.28;;;22.12;40.58
69879;BME280;57161;43.136;24.706;2022-09-13T16:58:41;98890.09;;;22.05;41.04
69879;BME280;57161;43.136;24.706;2022-09-13T17:01:09;98887.56;;;21.98;40.98
69879;BME280;57161;43.136;24.706;2022-09-13T17:03:35;98896.19;;;21.86;41.08
69879;BME280;57161;43.136;24.706;2022-09-13T17:06:03;98903.34;;;21.87;41.15
69879;BME280;57161;43.136;24.706;2022-09-13T17:08:29;98905.25;;;21.82;41.16
69879;BME280;57161;43.136;24.706;2022-09-13T17:10:55;98902.16;;;21.78;41.17
69879;BME280;57161;43.136;24.706;2022-09-13T17:13:20;98903.75;;;21.68;41.21
69879;BME280;57161;43.136;24.706;2022-09-13T17:15:46;98925.00;;;21.67;41.11
69879;BME280;57161;43.136;24.706;2022-09-13T17:18:12;98885.72;;;21.49;41.54